Notice: Undefined index: language in /home/spanairv/public_html/vam/index.php on line 25
Spanair Virtual

 INFORMACIÓN METAR y TAF
METAR FOR PANC
ADDS - METARS form results

(0035 UTC 25 April 2018)
Data provider http://aviationweather.gov/adds/metars/
 
METAR text: PANC 242353Z 14030G48KT 9SM FEW060 BKN095 BKN120 10/M03 A2938 RMK AO2 PK WND 11048/2350 RAE30 PRESFR SLP951 PRESENT WX VCSH ALQDS VIRGA OHD P0000 60000 T01001033 10100 20061 58035
Conditions at: PANC (ANCHORAGE INTL , AK, US) observed 2353 UTC 24 April 2018
Temperature: 10.0°C (50°F)
Dewpoint: -3.3°C (26°F) [RH = 39%]
Pressure (altimeter): 29.38 inches Hg (995.0 mb)
[Sea-level pressure: 995.1 mb]
Winds: from the SE (140 degrees) at 34 MPH (30 knots; 15.6 m/s)
gusting to 55 MPH (48 knots; 25.0 m/s)
Visibility: 9 miles (14 km)
Ceiling: 9500 feet AGL
Clouds: few clouds at 6000 feet AGL
broken clouds at 9500 feet AGL
broken clouds at 12000 feet AGL
Weather: no significant weather observed at this time

Forecast for: PANC (ANCHORAGE INTL , AK, US)
Text: PANC 242340Z 2500/2606 13020G38KT P6SM FEW050 BKN080 WS020/14060KT
Forecast period: 0000 to 0200 UTC 25 April 2018
Forecast type: FROM: standard forecast or significant change
Winds: from the SE (130 degrees) at 23 MPH (20 knots; 10.4 m/s)
gusting to 44 MPH (38 knots; 19.8 m/s)
Visibility: 6 or more miles (10+ km)
Ceiling: 8000 feet AGL
Clouds: few clouds at 5000 feet AGL
broken clouds at 8000 feet AGL
Wind shear: at 2000 feet ( 610 m) AGL, from the SE (140 degrees) at 69 MPH (60 knots; 31.2 m/s)
Weather: no significant weather forecast for this period
Forecast for: PANC (ANCHORAGE INTL , AK, US)
Text: PANC 242340Z 2500/2606 13020G38KT P6SM FEW050 BKN080 WS020/14060KT
Forecast period: 0000 to 0200 UTC 25 April 2018
Forecast type: FROM: standard forecast or significant change
Winds: from the SE (130 degrees) at 23 MPH (20 knots; 10.4 m/s)
gusting to 44 MPH (38 knots; 19.8 m/s)
Visibility: 6 or more miles (10+ km)
Ceiling: 8000 feet AGL
Clouds: few clouds at 5000 feet AGL
broken clouds at 8000 feet AGL
Wind shear: at 2000 feet ( 610 m) AGL, from the SE (140 degrees) at 69 MPH (60 knots; 31.2 m/s)
Weather: no significant weather forecast for this period
Forecast for: PANC (ANCHORAGE INTL , AK, US)
Text: PANC 242340Z 2500/2606 13020G38KT P6SM FEW050 BKN080 WS020/14060KT
Forecast period: 0200 to 0500 UTC 25 April 2018
Forecast type: FROM: standard forecast or significant change
Winds: from the SSE (160 degrees) at 29 MPH (25 knots; 13.0 m/s)
gusting to 40 MPH (35 knots; 18.2 m/s)
Visibility: 6 miles (10 km)
Ceiling: 3500 feet AGL
Clouds: scattered clouds at 2500 feet AGL
broken clouds at 3500 feet AGL
Weather: -RA  (light rain)
Forecast for: PANC (ANCHORAGE INTL , AK, US)
Text: PANC 242340Z 2500/2606 13020G38KT P6SM FEW050 BKN080 WS020/14060KT
Forecast period: 0200 to 0500 UTC 25 April 2018
Forecast type: FROM: standard forecast or significant change
Winds: from the SSE (160 degrees) at 29 MPH (25 knots; 13.0 m/s)
gusting to 40 MPH (35 knots; 18.2 m/s)
Visibility: 6 miles (10 km)
Ceiling: 3500 feet AGL
Clouds: scattered clouds at 2500 feet AGL
broken clouds at 3500 feet AGL
Weather: -RA  (light rain)
Forecast for: PANC (ANCHORAGE INTL , AK, US)
Text: PANC 242340Z 2500/2606 13020G38KT P6SM FEW050 BKN080 WS020/14060KT
Forecast period: 0500 UTC 25 April 2018 to 0600 UTC 26 April 2018
Forecast type: FROM: standard forecast or significant change
Winds: from the S (170 degrees) at 28 MPH (24 knots; 12.5 m/s)
gusting to 37 MPH (32 knots; 16.6 m/s)
Visibility: 6 or more miles (10+ km)
Ceiling: 6000 feet AGL
Clouds: scattered clouds at 3500 feet AGL
broken clouds at 6000 feet AGL
Weather: VCSH  (showers in vicinity)
Forecast for: PANC (ANCHORAGE INTL , AK, US)
Text: PANC 242340Z 2500/2606 13020G38KT P6SM FEW050 BKN080 WS020/14060KT
Forecast period: 0500 UTC 25 April 2018 to 0600 UTC 26 April 2018
Forecast type: FROM: standard forecast or significant change
Winds: from the S (170 degrees) at 28 MPH (24 knots; 12.5 m/s)
gusting to 37 MPH (32 knots; 16.6 m/s)
Visibility: 6 or more miles (10+ km)
Ceiling: 6000 feet AGL
Clouds: scattered clouds at 3500 feet AGL
broken clouds at 6000 feet AGL
Weather: VCSH  (showers in vicinity)

 MAPA DE AEROPUERTO

 INFORMACIÓN DE PISTA
Pista 07L Longitud 10600 ft Ancho 150 ft
Elevación 128 ft Umbral desplazado 0 ft Rumbo de pista 90
Pista 25R Longitud 10600 ft Ancho 150 ft
Elevación 92 ft Umbral desplazado 0 ft Rumbo de pista 270
Pista 07R Longitud 10900 ft Ancho 150 ft
Elevación 130 ft Umbral desplazado 0 ft Rumbo de pista 90
Pista 25L Longitud 10900 ft Ancho 150 ft
Elevación 100 ft Umbral desplazado 0 ft Rumbo de pista 270
Pista 14 Longitud 11584 ft Ancho 150 ft
Elevación 151 ft Umbral desplazado 200 ft Rumbo de pista 165
Pista 32 Longitud 11584 ft Ancho 150 ft
Elevación 121 ft Umbral desplazado 893 ft Rumbo de pista 345

 FRECUANCIAS DEL AEROPUERTO
Tipo A/D Nombre APP/DEP Frecuencia 119.1 MHZ
Tipo A/D Nombre APP/DEP Frecuencia 123.8 MHZ
Tipo ATIS Nombre ATIS Frecuencia 118.4 MHZ
Tipo AWOS Nombre TWEB Frecuencia 114.3 MHZ
Tipo CLD Nombre CLNC DEL Frecuencia 119.4 MHZ
Tipo FSS Nombre KENAI RDO Frecuencia 122.2 MHZ
Tipo GND Nombre GND Frecuencia 121.9 MHZ
Tipo MISC Nombre SAN FRANCI Frecuencia 1133 MHZ
Tipo POST Nombre CAMPER Frecuencia 140.15 MHZ
Tipo RFSS Nombre KENAI RDO Frecuencia 122.55 MHZ
Tipo TWR Nombre TWR Frecuencia 118.3 MHZ
Tipo UNIC Nombre UNICOM Frecuencia 122.95 MHZ

 RADIO AYUDAS DEL AEROPUERTO
Tipo NDB Nombre Orca Bay Frecuencia 233 KHZ
Tipo VOR-DME Nombre Anchorage Frecuencia 114300 KHZ
Tipo NDB Nombre Bruck Frecuencia 387 KHZ
Tipo NDB Nombre Campbell Lake Frecuencia 338 KHZ





VAM [v2.6.2]

Normativa | Spanair Virtual © 2017 | Customized by JZ © 2017 for Spanair Virtual